M V Trinidad — LAIY4 — position and weather

sailwx.info

Track history (hours):
 
Tides and Currents Weather Stations Pressure Air Temp Water Temp Dewpoint Dewpoint Depression Visibility Wind Speed Wind Dir Waves Ship Positions

M V Trinidad

Last reported at 2015-Feb-07 11:33 UTC. Time now 2015-Mar-28 04:00 UTC.
Position N 30°60' W 118°43'.
Warning: this ship's position is 48 days out of date.

Length 189 m; draft 8.8 m.

Type: Cargo ship. MMSI: 257425411.

Date/timePositionNaut miles runAvg speedWind from/ knotsBaromVisibWave heightAir tempDewpointWater temp
2015-Feb-07 11:33N 30°60' W 118°43'1413.7
2015-Feb-07 10:32N 31°05' W 118°28'1515.0
2015-Feb-07 09:33N 31°18' W 118°18'1514.6
2015-Feb-07 08:33N 31°30' W 118°09'1514.7
2015-Feb-07 07:33N 31°42' W 117°60'1515.0
2015-Feb-07 06:33N 31°55' W 117°50'1514.8
2015-Feb-07 05:33N 32°07' W 117°41'1514.9
2015-Feb-07 04:33N 32°19' W 117°30'1515.0
2015-Feb-07 03:33N 32°31' W 117°20'7 7.2
2015-Feb-07 02:33N 32°37' W 117°14'6 6.3
2015-Feb-07 01:33N 32°41' W 117°09'3 3.0
2015-Feb-07 00:34N 32°39' W 117°07'0 0.0
2015-Feb-06 23:31N 32°39' W 117°07'0 0.0
2015-Feb-06 22:31N 32°39' W 117°07'0 0.0
2015-Feb-06 21:31N 32°39' W 117°07'0 0.0
2015-Feb-06 20:31N 32°39' W 117°07'0 0.0
2015-Feb-06 19:31N 32°39' W 117°07'0 0.0
2015-Feb-06 18:31N 32°39' W 117°07'0 0.0
2015-Feb-06 17:28N 32°39' W 117°07'0 0.0
2015-Feb-06 16:31N 32°39' W 117°07'0 0.0
2015-Feb-06 15:31N 32°39' W 117°07'0 0.0
2015-Feb-06 14:31N 32°39' W 117°07'0 0.0
2015-Feb-06 13:31N 32°39' W 117°07'0 0.0
2015-Feb-06 12:31N 32°39' W 117°07'0 0.0
2015-Feb-06 11:28N 32°39' W 117°07'0 0.0
2015-Feb-06 10:31N 32°39' W 117°07'0 0.0
2015-Feb-06 09:31N 32°39' W 117°07'0 0.0
2015-Feb-06 08:31N 32°39' W 117°07'0 0.0
2015-Feb-06 07:28N 32°39' W 117°07'0 0.0
2015-Feb-06 06:31N 32°39' W 117°07'0 0.0
2015-Feb-06 05:31N 32°39' W 117°07'0 0.0
2015-Feb-06 04:31N 32°39' W 117°07'0 0.0
2015-Feb-06 03:34N 32°39' W 117°07'5 5.3
2015-Feb-06 02:33N 32°43' W 117°11'9 8.5
2015-Feb-06 01:34N 32°36' W 117°17'1313.3
2015-Feb-06 00:33N 32°36' W 117°33'1211.8
2015-Feb-05 23:34N 32°39' W 117°47'1 1.0
2015-Feb-05 22:33N 32°40' W 117°48'0 0.5
2015-Feb-05 21:34N 32°40' W 117°48'1 0.6
2015-Feb-05 20:33N 32°40' W 117°49'1 0.6
2015-Feb-05 19:33N 32°40' W 117°49'1 0.8
2015-Feb-05 18:34N 32°40' W 117°50'10 9.8
2015-Feb-05 17:33N 32°47' W 117°59'1514.9
2015-Feb-05 16:33N 32°56' W 118°13'1514.6
2015-Feb-05 15:33N 33°07' W 118°25'1514.5
2015-Feb-05 14:33N 33°18' W 118°36'1414.2
2015-Feb-05 13:33N 33°28' W 118°47'1414.4
2015-Feb-05 12:33N 33°42' W 118°54'1514.7
2015-Feb-05 11:33N 33°55' W 119°01'1514.7
2015-Feb-05 10:34N 34°03' W 119°16'7 6.9
2015-Feb-05 09:33N 34°09' W 119°12'0 0.0
2015-Feb-05 08:31N 34°09' W 119°12'0 0.0
2015-Feb-05 07:31N 34°09' W 119°12'0 0.0
2015-Feb-05 06:31N 34°09' W 119°12'0 0.0
2015-Feb-05 05:31N 34°09' W 119°12'0 0.0
2015-Feb-05 04:31N 34°09' W 119°12'0 0.0
2015-Feb-05 03:31N 34°09' W 119°12'0 0.0
2015-Feb-05 02:31N 34°09' W 119°12'0 0.0
2015-Feb-05 01:31N 34°09' W 119°12'0 0.0
2015-Feb-05 00:31N 34°09' W 119°12'0 0.0
2015-Feb-04 23:31N 34°09' W 119°12'0 0.0
2015-Feb-04 22:31N 34°09' W 119°12'0 0.0
2015-Feb-04 21:31N 34°09' W 119°12'0 0.0
2015-Feb-04 20:31N 34°09' W 119°12'0 0.0
2015-Feb-04 19:31N 34°09' W 119°12'0 0.0
2015-Feb-04 18:28N 34°09' W 119°12'0 0.0
2015-Feb-04 17:25N 34°09' W 119°12'0 0.0
2015-Feb-04 16:31N 34°09' W 119°12'0 0.0
2015-Feb-04 15:13N 34°09' W 119°12'0 0.0
2015-Feb-04 14:16N 34°09' W 119°12'0 0.0
2015-Feb-04 12:22N 34°09' W 119°12'0 0.0
2015-Feb-04 11:31N 34°09' W 119°12'0 0.0
2015-Feb-04 10:31N 34°09' W 119°12'0 0.0
2015-Feb-04 09:31N 34°09' W 119°12'0 0.0
2015-Feb-04 08:13N 34°09' W 119°12'0 0.0
2015-Feb-04 07:31N 34°09' W 119°12'0 0.0
2015-Feb-04 06:31N 34°09' W 119°12'0 0.0
2015-Feb-04 05:31N 34°09' W 119°12'0 0.0
2015-Feb-04 04:31N 34°09' W 119°12'0 0.0
2015-Feb-04 03:19N 34°09' W 119°12'0 0.0
2015-Feb-04 02:10N 34°09' W 119°12'0 0.0
2015-Feb-04 01:31N 34°09' W 119°12'0 0.0
2015-Feb-04 00:28N 34°09' W 119°12'0 0.0
2015-Feb-03 23:25N 34°09' W 119°12'0 0.0
2015-Feb-03 21:19N 34°09' W 119°12'0 0.0
2015-Feb-03 20:07N 34°09' W 119°12'0 0.0
2015-Feb-03 19:31N 34°09' W 119°12'0 0.0
2015-Feb-03 17:31N 34°09' W 119°12'0 0.0
2015-Feb-03 16:31N 34°09' W 119°12'0 0.0
2015-Feb-03 15:31N 34°09' W 119°12'0 0.0
2015-Feb-03 14:31N 34°09' W 119°12'0 0.1
2015-Feb-03 13:33N 34°09' W 119°12'6 6.4
2015-Feb-03 12:33N 34°04' W 119°17'9 8.7
2015-Feb-03 11:33N 34°05' W 119°27'1513.5
2015-Feb-03 10:28N 34°09' W 119°44'1414.5
2015-Feb-03 09:32N 34°12' W 120°00'1714.0
2015-Feb-03 08:20N 34°17' W 120°20'1113.9
2015-Feb-03 07:34N 34°20' W 120°32'1414.4
2015-Feb-03 06:34N 34°23' W 120°49'1413.8
2015-Feb-03 05:33N 34°27' W 121°05'1413.8
2015-Feb-03 04:33N 34°30' W 121°22'1414.1
2015-Feb-03 03:33N 34°32' W 121°39'1414.0
2015-Feb-03 02:33N 34°34' W 121°55'1413.9
2015-Feb-03 01:33N 34°36' W 122°12'1414.1
2015-Feb-03 00:33N 34°38' W 122°29'1414.5
2015-Feb-02 23:33N 34°41' W 122°46'1414.2
2015-Feb-02 22:33N 34°43' W 123°03'2 2.3
2015-Feb-02 21:34N 34°45' W 123°02'7 6.5
2015-Feb-02 20:33N 34°47' W 123°09'1 1.3
2015-Feb-02 19:33N 34°48' W 123°09'3 3.3
2015-Feb-02 18:33N 34°49' W 123°13'1413.9
2015-Feb-02 17:33N 34°52' W 123°29'1414.1
2015-Feb-02 16:33N 34°55' W 123°46'1414.2
2015-Feb-02 15:33N 34°57' W 124°03'1514.5
2015-Feb-02 14:33N 35°00' W 124°21'1514.7
2015-Feb-02 13:33N 35°03' W 124°38'1514.6
2015-Feb-02 12:33N 35°06' W 124°56'1514.6
2015-Feb-02 11:34N 35°09' W 125°13'1914.7
2015-Feb-02 10:14N 35°13' W 125°36'1014.6
2015-Feb-02 09:33N 35°14' W 125°48'1413.6
2015-Feb-02 08:34N 35°21' W 126°03'1414.4
2015-Feb-02 07:33N 35°31' W 126°16'1714.3
2015-Feb-02 06:24N 35°42' W 126°32'1514.2
2015-Feb-02 05:21N 35°51' W 126°46'  
Track history (hours):
 
Tides and Currents Weather Stations Pressure Air Temp Water Temp Dewpoint Dewpoint Depression Visibility Wind Speed Wind Dir Waves Ship Positions

M V Trinidad

Last reported at 2015-Feb-07 11:33 UTC. Time now 2015-Mar-28 04:00 UTC.
Position N 30°60' W 118°43'.
Warning: this ship's position is 48 days out of date.

Length 189 m; draft 8.8 m.

Type: Cargo ship. MMSI: 257425411.

Date/timePositionNaut miles runAvg speedWind from/ knotsBaromVisibWave heightAir tempDewpointWater temp
2015-Feb-07 11:33N 30°60' W 118°43'1413.7
2015-Feb-07 10:32N 31°05' W 118°28'1515.0
2015-Feb-07 09:33N 31°18' W 118°18'1514.6
2015-Feb-07 08:33N 31°30' W 118°09'1514.7
2015-Feb-07 07:33N 31°42' W 117°60'1515.0
2015-Feb-07 06:33N 31°55' W 117°50'1514.8
2015-Feb-07 05:33N 32°07' W 117°41'1514.9
2015-Feb-07 04:33N 32°19' W 117°30'1515.0
2015-Feb-07 03:33N 32°31' W 117°20'7 7.2
2015-Feb-07 02:33N 32°37' W 117°14'6 6.3
2015-Feb-07 01:33N 32°41' W 117°09'3 3.0
2015-Feb-07 00:34N 32°39' W 117°07'0 0.0
2015-Feb-06 23:31N 32°39' W 117°07'0 0.0
2015-Feb-06 22:31N 32°39' W 117°07'0 0.0
2015-Feb-06 21:31N 32°39' W 117°07'0 0.0
2015-Feb-06 20:31N 32°39' W 117°07'0 0.0
2015-Feb-06 19:31N 32°39' W 117°07'0 0.0
2015-Feb-06 18:31N 32°39' W 117°07'0 0.0
2015-Feb-06 17:28N 32°39' W 117°07'0 0.0
2015-Feb-06 16:31N 32°39' W 117°07'0 0.0
2015-Feb-06 15:31N 32°39' W 117°07'0 0.0
2015-Feb-06 14:31N 32°39' W 117°07'0 0.0
2015-Feb-06 13:31N 32°39' W 117°07'0 0.0
2015-Feb-06 12:31N 32°39' W 117°07'0 0.0
2015-Feb-06 11:28N 32°39' W 117°07'0 0.0
2015-Feb-06 10:31N 32°39' W 117°07'0 0.0
2015-Feb-06 09:31N 32°39' W 117°07'0 0.0
2015-Feb-06 08:31N 32°39' W 117°07'0 0.0
2015-Feb-06 07:28N 32°39' W 117°07'0 0.0
2015-Feb-06 06:31N 32°39' W 117°07'0 0.0
2015-Feb-06 05:31N 32°39' W 117°07'0 0.0
2015-Feb-06 04:31N 32°39' W 117°07'0 0.0
2015-Feb-06 03:34N 32°39' W 117°07'5 5.3
2015-Feb-06 02:33N 32°43' W 117°11'9 8.5
2015-Feb-06 01:34N 32°36' W 117°17'1313.3
2015-Feb-06 00:33N 32°36' W 117°33'1211.8
2015-Feb-05 23:34N 32°39' W 117°47'1 1.0
2015-Feb-05 22:33N 32°40' W 117°48'0 0.5
2015-Feb-05 21:34N 32°40' W 117°48'1 0.6
2015-Feb-05 20:33N 32°40' W 117°49'1 0.6
2015-Feb-05 19:33N 32°40' W 117°49'1 0.8
2015-Feb-05 18:34N 32°40' W 117°50'10 9.8
2015-Feb-05 17:33N 32°47' W 117°59'1514.9
2015-Feb-05 16:33N 32°56' W 118°13'1514.6
2015-Feb-05 15:33N 33°07' W 118°25'1514.5
2015-Feb-05 14:33N 33°18' W 118°36'1414.2
2015-Feb-05 13:33N 33°28' W 118°47'1414.4
2015-Feb-05 12:33N 33°42' W 118°54'1514.7
2015-Feb-05 11:33N 33°55' W 119°01'1514.7
2015-Feb-05 10:34N 34°03' W 119°16'7 6.9
2015-Feb-05 09:33N 34°09' W 119°12'0 0.0
2015-Feb-05 08:31N 34°09' W 119°12'0 0.0
2015-Feb-05 07:31N 34°09' W 119°12'0 0.0
2015-Feb-05 06:31N 34°09' W 119°12'0 0.0
2015-Feb-05 05:31N 34°09' W 119°12'0 0.0
2015-Feb-05 04:31N 34°09' W 119°12'0 0.0
2015-Feb-05 03:31N 34°09' W 119°12'0 0.0
2015-Feb-05 02:31N 34°09' W 119°12'0 0.0
2015-Feb-05 01:31N 34°09' W 119°12'0 0.0
2015-Feb-05 00:31N 34°09' W 119°12'0 0.0
2015-Feb-04 23:31N 34°09' W 119°12'0 0.0
2015-Feb-04 22:31N 34°09' W 119°12'0 0.0
2015-Feb-04 21:31N 34°09' W 119°12'0 0.0
2015-Feb-04 20:31N 34°09' W 119°12'0 0.0
2015-Feb-04 19:31N 34°09' W 119°12'0 0.0
2015-Feb-04 18:28N 34°09' W 119°12'0 0.0
2015-Feb-04 17:25N 34°09' W 119°12'0 0.0
2015-Feb-04 16:31N 34°09' W 119°12'0 0.0
2015-Feb-04 15:13N 34°09' W 119°12'0 0.0
2015-Feb-04 14:16N 34°09' W 119°12'0 0.0
2015-Feb-04 12:22N 34°09' W 119°12'0 0.0
2015-Feb-04 11:31N 34°09' W 119°12'0 0.0
2015-Feb-04 10:31N 34°09' W 119°12'0 0.0
2015-Feb-04 09:31N 34°09' W 119°12'0 0.0
2015-Feb-04 08:13N 34°09' W 119°12'0 0.0
2015-Feb-04 07:31N 34°09' W 119°12'0 0.0
2015-Feb-04 06:31N 34°09' W 119°12'0 0.0
2015-Feb-04 05:31N 34°09' W 119°12'0 0.0
2015-Feb-04 04:31N 34°09' W 119°12'0 0.0
2015-Feb-04 03:19N 34°09' W 119°12'0 0.0
2015-Feb-04 02:10N 34°09' W 119°12'0 0.0
2015-Feb-04 01:31N 34°09' W 119°12'0 0.0
2015-Feb-04 00:28N 34°09' W 119°12'0 0.0
2015-Feb-03 23:25N 34°09' W 119°12'0 0.0
2015-Feb-03 21:19N 34°09' W 119°12'0 0.0
2015-Feb-03 20:07N 34°09' W 119°12'0 0.0
2015-Feb-03 19:31N 34°09' W 119°12'0 0.0
2015-Feb-03 17:31N 34°09' W 119°12'0 0.0
2015-Feb-03 16:31N 34°09' W 119°12'0 0.0
2015-Feb-03 15:31N 34°09' W 119°12'0 0.0
2015-Feb-03 14:31N 34°09' W 119°12'0 0.1
2015-Feb-03 13:33N 34°09' W 119°12'6 6.4
2015-Feb-03 12:33N 34°04' W 119°17'9 8.7
2015-Feb-03 11:33N 34°05' W 119°27'1513.5
2015-Feb-03 10:28N 34°09' W 119°44'1414.5
2015-Feb-03 09:32N 34°12' W 120°00'1714.0
2015-Feb-03 08:20N 34°17' W 120°20'1113.9
2015-Feb-03 07:34N 34°20' W 120°32'1414.4
2015-Feb-03 06:34N 34°23' W 120°49'1413.8
2015-Feb-03 05:33N 34°27' W 121°05'1413.8
2015-Feb-03 04:33N 34°30' W 121°22'1414.1
2015-Feb-03 03:33N 34°32' W 121°39'1414.0
2015-Feb-03 02:33N 34°34' W 121°55'1413.9
2015-Feb-03 01:33N 34°36' W 122°12'1414.1
2015-Feb-03 00:33N 34°38' W 122°29'1414.5
2015-Feb-02 23:33N 34°41' W 122°46'1414.2
2015-Feb-02 22:33N 34°43' W 123°03'2 2.3
2015-Feb-02 21:34N 34°45' W 123°02'7 6.5
2015-Feb-02 20:33N 34°47' W 123°09'1 1.3
2015-Feb-02 19:33N 34°48' W 123°09'3 3.3
2015-Feb-02 18:33N 34°49' W 123°13'1413.9
2015-Feb-02 17:33N 34°52' W 123°29'1414.1
2015-Feb-02 16:33N 34°55' W 123°46'1414.2
2015-Feb-02 15:33N 34°57' W 124°03'1514.5
2015-Feb-02 14:33N 35°00' W 124°21'1514.7
2015-Feb-02 13:33N 35°03' W 124°38'1514.6
2015-Feb-02 12:33N 35°06' W 124°56'1514.6
2015-Feb-02 11:34N 35°09' W 125°13'1914.7
2015-Feb-02 10:14N 35°13' W 125°36'1014.6
2015-Feb-02 09:33N 35°14' W 125°48'1413.6
2015-Feb-02 08:34N 35°21' W 126°03'1414.4
2015-Feb-02 07:33N 35°31' W 126°16'1714.3
2015-Feb-02 06:24N 35°42' W 126°32'1514.2
2015-Feb-02 05:21N 35°51' W 126°46'  

Dump ship's entire track history